createdAt,value
2019-01-19T00:01:54.132Z,99.90
2019-01-19T00:04:52.028Z,99.90
2019-01-19T00:07:45.379Z,99.90
2019-01-19T00:10:58.274Z,99.90
2019-01-19T00:13:54.197Z,99.90
2019-01-19T00:16:59.577Z,99.90
2019-01-19T00:20:07.139Z,99.90
2019-01-19T00:23:16.151Z,99.90
2019-01-19T00:26:37.421Z,99.90
2019-01-19T00:29:15.329Z,99.90
2019-01-19T00:32:16.990Z,99.90
2019-01-19T00:35:21.227Z,99.90
2019-01-19T00:38:27.985Z,99.90
2019-01-19T00:41:31.501Z,99.90
2019-01-19T00:44:28.917Z,99.90
2019-01-19T00:47:18.937Z,99.90
2019-01-19T00:50:10.143Z,99.90
2019-01-19T00:52:43.801Z,99.90
2019-01-19T00:55:36.948Z,99.90
2019-01-19T00:59:02.084Z,99.90
2019-01-19T01:02:17.218Z,99.90
2019-01-19T01:05:00.749Z,99.90
2019-01-19T01:08:26.398Z,99.90
2019-01-19T01:11:14.258Z,99.90
2019-01-19T01:14:17.521Z,99.90
2019-01-19T01:17:44.470Z,99.90
2019-01-19T01:20:31.746Z,99.80
2019-01-19T01:23:22.384Z,99.90
2019-01-19T01:26:35.285Z,99.90
2019-01-19T01:29:27.040Z,99.90
2019-01-19T01:32:28.234Z,99.90
2019-01-19T01:35:36.145Z,99.90
2019-01-19T01:38:16.398Z,99.90
2019-01-19T01:41:20.683Z,99.90
2019-01-19T01:44:26.477Z,99.90
2019-01-19T01:47:36.771Z,99.90
2019-01-19T01:50:14.389Z,99.90
2019-01-19T01:53:19.664Z,99.90
2019-01-19T01:55:55.965Z,99.90
2019-01-19T01:58:53.186Z,99.90
2019-01-19T02:01:32.110Z,99.90
2019-01-19T02:04:30.241Z,99.90
2019-01-19T02:07:34.560Z,99.90
2019-01-19T02:11:12.104Z,99.90
2019-01-19T02:14:02.454Z,99.90
2019-01-19T02:17:07.296Z,99.90
2019-01-19T02:20:03.345Z,99.90
2019-01-19T02:23:09.230Z,99.90
2019-01-19T02:26:14.145Z,99.90
2019-01-19T02:29:33.166Z,99.90
2019-01-19T02:32:18.709Z,99.90
2019-01-19T02:35:17.339Z,99.90
2019-01-19T02:38:23.814Z,99.90
2019-01-19T02:41:41.743Z,99.90
2019-01-19T02:44:45.821Z,99.90
2019-01-19T02:47:35.985Z,99.90
2019-01-19T02:50:24.588Z,99.90
2019-01-19T02:53:44.349Z,99.90
2019-01-19T02:57:03.780Z,99.90
2019-01-19T02:59:52.470Z,99.90
2019-01-19T03:03:05.970Z,99.90
2019-01-19T03:06:34.329Z,99.90
2019-01-19T03:09:22.750Z,99.90
2019-01-19T03:12:54.389Z,99.90
2019-01-19T03:15:47.997Z,99.90
2019-01-19T03:18:52.739Z,99.90
2019-01-19T03:22:04.074Z,99.90
2019-01-19T03:25:15.446Z,99.90
2019-01-19T03:28:04.411Z,99.90
2019-01-19T03:31:19.803Z,99.90
2019-01-19T03:34:18.538Z,99.90
2019-01-19T03:37:19.342Z,99.90
2019-01-19T03:39:59.414Z,99.90
2019-01-19T03:42:56.405Z,99.90
2019-01-19T03:46:00.209Z,99.90
2019-01-19T03:49:13.109Z,99.90
2019-01-19T03:52:20.265Z,99.90
2019-01-19T03:55:13.717Z,99.90
2019-01-19T03:58:08.186Z,99.90
2019-01-19T04:01:05.215Z,99.90
2019-01-19T04:03:53.922Z,99.90
2019-01-19T04:07:04.182Z,99.90
2019-01-19T04:10:04.172Z,99.90
2019-01-19T04:13:02.002Z,99.90
2019-01-19T04:16:36.394Z,99.90
2019-01-19T04:19:36.718Z,99.90
2019-01-19T04:22:39.998Z,99.90
2019-01-19T04:25:17.738Z,99.90
2019-01-19T04:27:46.646Z,99.90
2019-01-19T04:30:15.644Z,99.90
2019-01-19T04:32:44.546Z,99.90
2019-01-19T04:35:13.529Z,99.90
2019-01-19T04:37:42.430Z,99.90
2019-01-19T04:40:12.885Z,99.90
2019-01-19T04:42:43.574Z,99.90
2019-01-19T04:45:13.018Z,99.90
2019-01-19T04:47:41.929Z,99.90
2019-01-19T04:50:12.502Z,99.90
2019-01-19T04:52:41.474Z,99.90
2019-01-19T04:55:10.459Z,99.90
2019-01-19T04:57:39.370Z,99.90
2019-01-19T05:00:18.840Z,99.90
2019-01-19T05:02:47.712Z,99.90
2019-01-19T05:05:16.746Z,99.90
2019-01-19T05:07:45.755Z,99.90
2019-01-19T05:10:14.782Z,99.90
2019-01-19T05:12:43.792Z,99.90
2019-01-19T05:15:15.717Z,99.90
2019-01-19T05:17:45.312Z,99.90
2019-01-19T05:20:14.507Z,99.90
2019-01-19T05:22:43.506Z,99.90
2019-01-19T05:25:12.718Z,99.90
2019-01-19T05:27:41.569Z,99.90
2019-01-19T05:30:13.956Z,99.90
2019-01-19T05:32:43.330Z,99.90
2019-01-19T05:35:12.480Z,99.90
2019-01-19T05:37:41.566Z,99.90
2019-01-19T05:40:11.282Z,99.90
2019-01-19T05:42:40.449Z,99.90
2019-01-19T05:45:11.200Z,99.90
2019-01-19T05:47:40.043Z,99.90
2019-01-19T05:50:12.769Z,99.90
2019-01-19T05:52:41.758Z,99.90
2019-01-19T05:55:10.838Z,99.90
2019-01-19T05:57:39.754Z,99.90
2019-01-19T06:00:12.943Z,99.90
2019-01-19T06:02:41.854Z,99.90
2019-01-19T06:05:11.085Z,99.90
2019-01-19T06:07:41.565Z,99.90
2019-01-19T06:10:13.313Z,99.90
2019-01-19T06:12:42.229Z,99.90
2019-01-19T06:15:12.934Z,99.90
2019-01-19T06:17:42.279Z,99.90
2019-01-19T06:20:13.070Z,99.90
2019-01-19T06:22:41.993Z,99.90
2019-01-19T06:25:11.984Z,99.90
2019-01-19T06:27:40.892Z,99.90
2019-01-19T06:30:13.561Z,99.90
2019-01-19T06:32:42.397Z,99.90
2019-01-19T06:35:11.662Z,99.90
2019-01-19T06:37:40.645Z,99.90
2019-01-19T06:40:10.642Z,99.90
2019-01-19T06:42:39.590Z,99.90
2019-01-19T06:45:12.361Z,99.90
2019-01-19T06:47:41.205Z,99.90
2019-01-19T06:50:12.237Z,99.90
2019-01-19T06:52:41.277Z,99.90
2019-01-19T06:55:11.462Z,99.90
2019-01-19T06:57:40.289Z,99.90
2019-01-19T07:00:11.849Z,99.90
2019-01-19T07:02:40.753Z,99.90
2019-01-19T07:05:09.849Z,99.90
2019-01-19T07:07:38.762Z,99.90
2019-01-19T07:10:11.765Z,99.90
2019-01-19T07:12:41.013Z,99.90
2019-01-19T07:15:10.983Z,99.90
2019-01-19T07:17:39.894Z,99.90
2019-01-19T07:20:12.030Z,99.90
2019-01-19T07:22:41.013Z,99.90
2019-01-19T07:25:10.061Z,99.90
2019-01-19T07:27:38.899Z,99.90
2019-01-19T07:30:10.861Z,99.90
2019-01-19T07:32:39.757Z,99.90
2019-01-19T07:35:10.689Z,99.90
2019-01-19T07:37:39.680Z,99.90
2019-01-19T07:40:10.617Z,99.90
2019-01-19T07:42:40.583Z,99.90
2019-01-19T07:45:10.045Z,99.90
2019-01-19T07:47:39.417Z,99.90
2019-01-19T07:50:10.681Z,99.90
2019-01-19T07:52:39.751Z,99.90
2019-01-19T07:55:10.309Z,99.90
2019-01-19T07:57:39.214Z,99.90
2019-01-19T08:00:12.702Z,99.90
2019-01-19T08:02:41.945Z,99.90
2019-01-19T08:05:11.246Z,99.90
2019-01-19T08:07:40.146Z,99.90
2019-01-19T08:10:10.849Z,99.90
2019-01-19T08:12:39.958Z,99.90
2019-01-19T08:15:11.880Z,99.90
2019-01-19T08:17:41.193Z,99.90
2019-01-19T08:20:11.072Z,99.90
2019-01-19T08:22:40.317Z,99.90
2019-01-19T08:25:09.745Z,99.90
2019-01-19T08:27:39.281Z,99.90
2019-01-19T08:30:14.829Z,99.90
2019-01-19T08:32:44.021Z,99.90
2019-01-19T08:35:15.547Z,99.90
2019-01-19T08:37:44.614Z,99.90
2019-01-19T08:40:16.617Z,99.90
2019-01-19T08:42:47.198Z,99.90
2019-01-19T08:45:17.182Z,99.90
2019-01-19T08:47:46.026Z,99.90
2019-01-19T08:50:15.379Z,99.90
2019-01-19T08:52:44.429Z,99.90
2019-01-19T08:55:13.625Z,99.90
2019-01-19T08:57:42.629Z,99.90
2019-01-19T09:00:14.777Z,99.90
2019-01-19T09:02:43.894Z,99.90
2019-01-19T09:05:13.084Z,99.70
2019-01-19T09:07:42.133Z,99.80
2019-01-19T09:10:12.955Z,99.60
2019-01-19T09:12:41.976Z,99.70
2019-01-19T09:15:13.686Z,99.70
2019-01-19T09:17:42.813Z,99.20
2019-01-19T09:20:13.285Z,99.10
2019-01-19T09:22:42.195Z,98.90
2019-01-19T09:25:13.197Z,99.00
2019-01-19T09:27:42.803Z,99.00
2019-01-19T09:30:17.209Z,99.10
2019-01-19T09:32:46.737Z,99.10
2019-01-19T09:35:16.218Z,99.10
2019-01-19T09:37:46.845Z,98.50
2019-01-19T09:40:16.392Z,98.80
2019-01-19T09:42:45.743Z,98.10
2019-01-19T09:45:15.585Z,97.90
2019-01-19T09:47:44.981Z,97.80
2019-01-19T09:50:14.990Z,97.50
2019-01-19T09:52:47.882Z,97.70
2019-01-19T09:55:16.841Z,97.20
2019-01-19T09:57:45.833Z,97.70
2019-01-19T10:00:16.447Z,97.50
2019-01-19T10:02:45.493Z,97.20
2019-01-19T10:05:17.301Z,97.50
2019-01-19T10:07:48.635Z,97.00
2019-01-19T10:10:17.366Z,96.80
2019-01-19T10:12:46.354Z,96.10
2019-01-19T10:15:16.142Z,96.00
2019-01-19T10:17:45.242Z,96.40
2019-01-19T10:20:19.656Z,96.00
2019-01-19T10:22:48.644Z,95.60
2019-01-19T10:25:17.800Z,95.30
2019-01-19T10:27:46.970Z,94.70
2019-01-19T10:30:18.279Z,93.60
2019-01-19T10:32:47.282Z,94.70
2019-01-19T10:35:16.336Z,94.90
2019-01-19T10:37:45.342Z,94.60
2019-01-19T10:40:14.786Z,93.90
2019-01-19T10:42:43.735Z,94.00
2019-01-19T10:45:17.965Z,94.00
2019-01-19T10:47:47.189Z,94.90
2019-01-19T10:50:17.008Z,93.50
2019-01-19T10:52:46.265Z,94.00
2019-01-19T10:55:16.973Z,94.10
2019-01-19T10:57:45.958Z,93.30
2019-01-19T11:00:17.898Z,93.20
2019-01-19T11:02:47.557Z,93.90
2019-01-19T11:05:16.990Z,92.30
2019-01-19T11:07:48.018Z,92.30
2019-01-19T11:10:21.985Z,91.90
2019-01-19T11:12:51.057Z,92.10
2019-01-19T11:15:20.371Z,93.10
2019-01-19T11:17:49.260Z,92.80
2019-01-19T11:20:20.445Z,91.80
2019-01-19T11:22:49.337Z,92.20
2019-01-19T11:25:18.427Z,91.00
2019-01-19T11:27:47.314Z,92.70
2019-01-19T11:30:21.362Z,91.80
2019-01-19T11:32:50.325Z,92.20
2019-01-19T11:35:19.453Z,92.70
2019-01-19T11:37:48.413Z,91.50
2019-01-19T11:40:22.481Z,90.50
2019-01-19T11:42:51.830Z,91.50
2019-01-19T11:45:21.802Z,90.60
2019-01-19T11:47:50.997Z,89.30
2019-01-19T11:50:20.277Z,88.60
2019-01-19T11:52:49.198Z,99.90
2019-01-19T11:55:21.589Z,99.20
2019-01-19T11:57:53.029Z,98.70
2019-01-19T12:00:27.461Z,85.50
2019-01-19T12:02:56.360Z,77.90
2019-01-19T12:05:25.354Z,79.30
2019-01-19T12:07:54.330Z,79.70
2019-01-19T12:10:25.749Z,80.50
2019-01-19T12:12:54.764Z,79.70
2019-01-19T12:15:24.043Z,82.80
2019-01-19T12:17:53.067Z,79.50
2019-01-19T12:20:45.497Z,81.20
2019-01-19T12:23:14.321Z,79.10
2019-01-19T12:25:43.233Z,81.00
2019-01-19T12:28:12.245Z,81.00
2019-01-19T12:30:41.258Z,79.60
2019-01-19T12:33:10.322Z,79.30
2019-01-19T12:35:39.322Z,77.40
2019-01-19T12:38:08.759Z,79.80
2019-01-19T12:40:39.388Z,77.00
2019-01-19T12:43:20.171Z,79.40
2019-01-19T12:45:55.694Z,80.30
2019-01-19T12:48:30.579Z,80.30
2019-01-19T12:51:02.777Z,79.30
2019-01-19T12:53:33.621Z,80.10
2019-01-19T12:56:22.197Z,82.80
2019-01-19T12:58:52.145Z,80.60
2019-01-19T13:01:21.880Z,80.60
2019-01-19T13:03:51.196Z,81.20
2019-01-19T13:06:35.109Z,83.30
2019-01-19T13:09:12.642Z,84.60
2019-01-19T13:12:11.397Z,85.60
2019-01-19T13:14:47.746Z,85.70
2019-01-19T13:18:10.294Z,87.40
2019-01-19T13:21:19.610Z,87.70
2019-01-19T13:24:34.085Z,88.70
2019-01-19T13:27:44.786Z,89.70
2019-01-19T13:30:48.919Z,89.10
2019-01-19T13:33:49.468Z,87.90
2019-01-19T13:37:00.406Z,88.30
2019-01-19T13:40:00.729Z,89.40
2019-01-19T13:43:14.511Z,89.50
2019-01-19T13:45:53.239Z,89.70
2019-01-19T13:48:38.804Z,89.90
2019-01-19T13:51:44.419Z,90.20
2019-01-19T13:54:59.192Z,88.50
2019-01-19T13:57:56.541Z,90.00
2019-01-19T14:00:56.394Z,91.70
2019-01-19T14:03:56.938Z,90.90
2019-01-19T14:07:15.058Z,91.10
2019-01-19T14:10:20.212Z,91.00
2019-01-19T14:13:18.433Z,91.10
2019-01-19T14:16:34.445Z,91.60
2019-01-19T14:19:25.541Z,92.30
2019-01-19T14:22:48.107Z,92.20
2019-01-19T14:26:25.070Z,92.70
2019-01-19T14:29:35.828Z,92.00
2019-01-19T14:32:51.255Z,92.60
2019-01-19T14:35:37.743Z,92.40
2019-01-19T14:38:56.872Z,93.40
2019-01-19T14:42:11.927Z,93.20
2019-01-19T14:45:02.363Z,92.90
2019-01-19T14:47:42.121Z,93.00
2019-01-19T14:51:01.768Z,93.90
2019-01-19T14:54:14.348Z,93.70
2019-01-19T14:57:15.743Z,93.00
2019-01-19T15:00:35.388Z,93.80
2019-01-19T15:03:20.631Z,93.00
2019-01-19T15:06:16.225Z,93.00
2019-01-19T15:09:14.149Z,93.90
2019-01-19T15:12:19.981Z,93.60
2019-01-19T15:15:35.627Z,93.40
2019-01-19T15:18:33.334Z,93.20
2019-01-19T15:21:40.472Z,92.80
2019-01-19T15:24:29.133Z,93.10
2019-01-19T15:27:38.213Z,93.00
2019-01-19T15:30:44.046Z,94.00
2019-01-19T15:33:53.269Z,93.80
2019-01-19T15:36:55.012Z,94.20
2019-01-19T15:39:52.449Z,94.10
2019-01-19T15:43:01.510Z,94.50
2019-01-19T15:45:55.586Z,94.80
2019-01-19T15:49:17.025Z,94.90
2019-01-19T15:52:13.130Z,95.30
2019-01-19T15:55:20.569Z,95.70
2019-01-19T15:58:15.469Z,95.50
2019-01-19T16:01:13.448Z,95.30
2019-01-19T16:04:36.617Z,95.80
2019-01-19T16:07:42.066Z,95.70
2019-01-19T16:10:52.640Z,95.40
2019-01-19T16:14:11.475Z,96.20
2019-01-19T16:17:40.420Z,95.70
2019-01-19T16:21:01.839Z,95.60
2019-01-19T16:23:54.665Z,96.10
2019-01-19T16:27:02.365Z,95.90
2019-01-19T16:30:00.316Z,95.80
2019-01-19T16:33:10.708Z,95.90
2019-01-19T16:36:19.192Z,95.90
2019-01-19T16:39:07.763Z,96.10
2019-01-19T16:41:52.676Z,96.60
2019-01-19T16:45:13.823Z,96.90
2019-01-19T16:48:17.648Z,96.60
2019-01-19T16:51:29.160Z,96.40
2019-01-19T16:54:07.106Z,96.70
2019-01-19T16:57:08.538Z,96.90
2019-01-19T17:03:14.011Z,97.10
2019-01-19T17:06:21.616Z,97.20
2019-01-19T17:09:35.045Z,97.20
2019-01-19T17:12:44.432Z,97.40
2019-01-19T17:16:00.879Z,97.80
2019-01-19T17:19:04.889Z,97.60
2019-01-19T17:22:15.095Z,97.70
2019-01-19T17:25:16.156Z,98.00
2019-01-19T17:27:52.347Z,98.10
2019-01-19T17:30:55.604Z,98.10
2019-01-19T17:34:13.901Z,98.00
2019-01-19T17:37:11.837Z,98.10
2019-01-19T17:40:30.417Z,97.80
2019-01-19T17:43:37.710Z,97.90
2019-01-19T17:46:49.985Z,97.90
2019-01-19T17:49:54.783Z,98.00
2019-01-19T17:53:04.149Z,98.00
2019-01-19T17:56:06.202Z,98.20
2019-01-19T17:59:02.212Z,98.40
2019-01-19T18:02:08.344Z,98.40
2019-01-19T18:05:16.641Z,98.50
2019-01-19T18:08:33.465Z,98.00
2019-01-19T18:11:41.095Z,98.00
2019-01-19T18:14:53.554Z,97.80
2019-01-19T18:17:47.460Z,98.10
2019-01-19T18:20:53.884Z,98.10
2019-01-19T18:23:43.944Z,98.00
2019-01-19T18:26:38.796Z,98.10
2019-01-19T18:29:45.244Z,97.80
2019-01-19T18:32:41.758Z,98.10
2019-01-19T18:35:36.522Z,97.50
2019-01-19T18:38:37.113Z,97.70
2019-01-19T18:41:18.963Z,97.80
2019-01-19T18:44:08.758Z,97.90
2019-01-19T18:47:25.201Z,98.00
2019-01-19T18:50:40.423Z,98.10
2019-01-19T18:53:51.726Z,98.10
2019-01-19T18:57:16.670Z,98.20
2019-01-19T19:00:14.066Z,98.50
2019-01-19T19:02:52.098Z,98.30
2019-01-19T19:05:48.746Z,98.40
2019-01-19T19:09:13.278Z,98.00
2019-01-19T19:12:16.213Z,98.40
2019-01-19T19:15:16.370Z,98.30
2019-01-19T19:18:22.950Z,98.50
2019-01-19T19:21:39.264Z,98.40
2019-01-19T19:24:48.260Z,98.70
2019-01-19T19:28:07.319Z,98.60
2019-01-19T19:31:24.892Z,98.70
2019-01-19T19:34:22.965Z,99.00
2019-01-19T19:37:16.637Z,99.20
2019-01-19T19:40:35.965Z,99.10
2019-01-19T19:43:42.526Z,99.20
2019-01-19T19:46:36.571Z,98.90
2019-01-19T19:49:38.344Z,98.80
2019-01-19T19:52:07.757Z,99.00
2019-01-19T19:54:38.775Z,98.90
2019-01-19T19:57:09.788Z,98.80
2019-01-19T19:59:39.367Z,99.10
2019-01-19T20:02:10.345Z,99.00
2019-01-19T20:04:41.060Z,98.70
2019-01-19T20:07:10.742Z,99.10
2019-01-19T20:09:40.146Z,98.80
2019-01-19T20:12:10.977Z,99.00
2019-01-19T20:14:40.450Z,99.50
2019-01-19T20:17:13.971Z,98.90
2019-01-19T20:19:44.452Z,99.00
2019-01-19T20:22:13.985Z,99.10
2019-01-19T20:24:43.417Z,99.20
2019-01-19T20:27:12.954Z,99.40
2019-01-19T20:29:42.400Z,99.50
2019-01-19T20:32:11.779Z,99.40
2019-01-19T20:34:41.261Z,99.50
2019-01-19T20:37:10.592Z,99.60
2019-01-19T20:39:40.168Z,99.50
2019-01-19T20:42:09.587Z,99.40
2019-01-19T20:45:04.199Z,99.30
2019-01-19T20:47:33.545Z,99.60
2019-01-19T20:50:03.056Z,99.70
2019-01-19T20:52:32.786Z,99.30
2019-01-19T20:55:02.102Z,99.50
2019-01-19T20:57:31.327Z,99.50
2019-01-19T21:00:00.584Z,99.60
2019-01-19T21:02:30.006Z,99.60
2019-01-19T21:04:59.036Z,99.80
2019-01-19T21:07:28.148Z,99.90
2019-01-19T21:09:57.053Z,99.90
2019-01-19T21:12:25.882Z,99.80
2019-01-19T21:14:54.790Z,99.70
2019-01-19T21:17:23.729Z,99.70
2019-01-19T21:19:52.645Z,99.90
2019-01-19T21:22:21.561Z,99.90
2019-01-19T21:24:50.489Z,99.90
2019-01-19T21:27:19.402Z,99.80
2019-01-19T21:29:48.381Z,99.70
2019-01-19T21:32:17.685Z,99.80
2019-01-19T21:34:46.673Z,99.90
2019-01-19T21:37:15.593Z,99.80
2019-01-19T21:39:44.430Z,99.90
2019-01-19T21:42:13.257Z,99.90
2019-01-19T21:44:42.109Z,99.90
2019-01-19T21:47:10.947Z,99.90
2019-01-19T21:49:39.791Z,99.90
2019-01-19T21:52:08.703Z,99.90
2019-01-19T21:54:37.601Z,99.90
2019-01-19T21:57:06.580Z,99.90
2019-01-19T21:59:35.861Z,99.90
2019-01-19T22:02:05.122Z,99.90
2019-01-19T22:04:34.066Z,99.90
2019-01-19T22:07:03.081Z,99.90
2019-01-19T22:09:32.297Z,99.90
2019-01-19T22:12:02.245Z,99.90
2019-01-19T22:14:31.167Z,99.90
2019-01-19T22:17:00.429Z,99.90
2019-01-19T22:19:29.393Z,99.90
2019-01-19T22:21:58.261Z,99.90
2019-01-19T22:24:27.189Z,99.90
2019-01-19T22:26:56.541Z,99.90
2019-01-19T22:29:25.625Z,99.90
2019-01-19T22:31:54.454Z,99.90
2019-01-19T22:34:23.304Z,99.90
2019-01-19T22:36:52.402Z,99.80
2019-01-19T22:39:21.254Z,99.90
2019-01-19T22:41:50.165Z,99.90
2019-01-19T22:44:19.101Z,99.90
2019-01-19T22:46:48.025Z,99.90
2019-01-19T22:49:16.970Z,99.90
2019-01-19T22:52:05.006Z,99.90
2019-01-19T22:54:33.843Z,99.90
2019-01-19T22:57:02.807Z,99.90
2019-01-19T22:59:31.721Z,99.90
2019-01-19T23:02:08.321Z,99.90
2019-01-19T23:04:37.298Z,99.90
2019-01-19T23:07:06.140Z,99.90
2019-01-19T23:09:35.109Z,99.90
2019-01-19T23:12:04.191Z,99.90
2019-01-19T23:14:33.943Z,99.90
2019-01-19T23:17:02.789Z,99.90
2019-01-19T23:19:31.624Z,99.90
2019-01-19T23:22:00.559Z,99.90
2019-01-19T23:24:29.399Z,99.90
2019-01-19T23:27:06.142Z,99.90
2019-01-19T23:29:35.034Z,99.90
2019-01-19T23:32:04.496Z,99.90
2019-01-19T23:34:33.398Z,99.90
2019-01-19T23:37:02.329Z,99.90
2019-01-19T23:39:31.161Z,99.90
2019-01-19T23:42:00.070Z,99.90
2019-01-19T23:44:28.981Z,99.90
2019-01-19T23:46:57.885Z,99.90
2019-01-19T23:49:26.718Z,99.90
2019-01-19T23:51:55.621Z,99.90
2019-01-19T23:54:24.595Z,99.90
2019-01-19T23:56:53.433Z,99.90
2019-01-19T23:59:22.257Z,99.90
